createdAt,value
2017-08-10T00:02:05.216Z,11.70
2017-08-10T00:04:39.269Z,12.98
2017-08-10T00:07:13.570Z,13.73
2017-08-10T00:09:47.529Z,11.07
2017-08-10T00:12:22.463Z,8.55
2017-08-10T00:14:57.542Z,8.02
2017-08-10T00:17:32.366Z,8.00
2017-08-10T00:20:06.315Z,11.00
2017-08-10T00:22:40.638Z,9.80
2017-08-10T00:25:14.712Z,8.30
2017-08-10T00:27:50.499Z,8.55
2017-08-10T00:30:26.044Z,9.18
2017-08-10T00:33:00.066Z,8.13
2017-08-10T00:35:34.018Z,10.90
2017-08-10T00:38:07.978Z,8.23
2017-08-10T00:40:42.732Z,8.25
2017-08-10T00:43:17.997Z,7.75
2017-08-10T00:45:52.199Z,8.25
2017-08-10T00:48:25.885Z,7.60
2017-08-10T00:51:00.025Z,9.20
2017-08-10T00:53:34.994Z,8.18
2017-08-10T00:56:08.976Z,11.00
2017-08-10T00:58:43.057Z,8.95
2017-08-10T01:01:17.990Z,8.07
2017-08-10T01:03:51.999Z,6.55
2017-08-10T01:06:26.568Z,12.73
2017-08-10T01:09:02.185Z,13.00
2017-08-10T01:11:37.205Z,10.38
2017-08-10T01:14:12.062Z,13.90
2017-08-10T01:16:47.658Z,14.45
2017-08-10T01:19:22.189Z,14.95
2017-08-10T01:21:56.088Z,15.93
2017-08-10T01:24:30.074Z,13.43
2017-08-10T01:27:04.930Z,10.60
2017-08-10T01:29:38.905Z,11.15
2017-08-10T01:32:12.652Z,10.27
2017-08-10T01:34:46.850Z,10.27
2017-08-10T01:37:21.250Z,9.65
2017-08-10T01:39:55.062Z,9.35
2017-08-10T01:42:29.159Z,12.10
2017-08-10T01:45:03.211Z,7.80
2017-08-10T01:47:37.568Z,10.13
2017-08-10T01:50:11.729Z,11.95
2017-08-10T01:52:46.687Z,9.85
2017-08-10T01:55:22.385Z,12.20
2017-08-10T01:57:56.775Z,15.10
2017-08-10T02:00:30.764Z,14.27
2017-08-10T02:03:05.444Z,16.55
2017-08-10T02:05:39.613Z,10.30
2017-08-10T02:08:13.667Z,9.55
2017-08-10T02:10:48.567Z,12.57
2017-08-10T02:13:23.778Z,11.23
2017-08-10T02:15:58.005Z,11.20
2017-08-10T02:18:33.326Z,13.62
2017-08-10T02:21:08.038Z,10.38
2017-08-10T02:23:42.987Z,9.65
2017-08-10T02:26:17.947Z,15.40
2017-08-10T02:28:54.365Z,12.05
2017-08-10T02:31:28.460Z,13.07
2017-08-10T02:34:02.735Z,13.15
2017-08-10T02:36:37.612Z,9.32
2017-08-10T02:39:11.943Z,13.95
2017-08-10T02:41:46.692Z,12.15
2017-08-10T02:44:21.455Z,8.75
2017-08-10T02:46:56.589Z,9.35
2017-08-10T02:49:31.392Z,12.82
2017-08-10T02:52:06.838Z,13.15
2017-08-10T02:54:45.889Z,14.13
2017-08-10T02:57:20.102Z,11.98
2017-08-10T02:59:56.823Z,14.75
2017-08-10T03:02:31.607Z,13.77
2017-08-10T03:05:05.742Z,14.20
2017-08-10T03:07:39.987Z,13.02
2017-08-10T03:10:15.158Z,12.70
2017-08-10T03:12:49.987Z,13.15
2017-08-10T03:15:24.064Z,12.77
2017-08-10T03:17:58.423Z,13.52
2017-08-10T03:20:32.323Z,12.70
2017-08-10T03:23:06.250Z,13.77
2017-08-10T03:25:40.408Z,11.32
2017-08-10T03:28:15.793Z,11.85
2017-08-10T03:30:50.127Z,13.50
2017-08-10T03:33:24.169Z,13.18
2017-08-10T03:35:58.561Z,13.90
2017-08-10T03:38:32.598Z,12.90
2017-08-10T03:41:07.331Z,14.20
2017-08-10T03:43:41.707Z,12.18
2017-08-10T03:46:15.764Z,12.73
2017-08-10T03:48:49.981Z,13.25
2017-08-10T03:51:28.519Z,13.05
2017-08-10T03:54:02.447Z,12.07
2017-08-10T03:56:37.755Z,11.85
2017-08-10T03:59:12.102Z,11.57
2017-08-10T04:01:46.285Z,11.73
2017-08-10T04:04:21.364Z,12.07
2017-08-10T04:06:55.993Z,12.75
2017-08-10T04:09:30.397Z,11.40
2017-08-10T04:12:04.703Z,12.93
2017-08-10T04:14:40.870Z,10.25
2017-08-10T04:17:15.487Z,12.18
2017-08-10T04:19:49.711Z,8.25
2017-08-10T04:22:25.164Z,10.38
2017-08-10T04:24:59.303Z,9.98
2017-08-10T04:27:35.553Z,10.77
2017-08-10T04:30:10.414Z,12.00
2017-08-10T04:32:45.373Z,12.68
2017-08-10T04:35:19.456Z,13.07
2017-08-10T04:37:54.543Z,13.68
2017-08-10T04:40:29.268Z,12.68
2017-08-10T04:43:04.313Z,9.07
2017-08-10T04:45:38.421Z,12.48
2017-08-10T04:48:12.476Z,14.43
2017-08-10T04:50:47.695Z,15.38
2017-08-10T04:53:21.735Z,14.10
2017-08-10T04:55:56.986Z,12.02
2017-08-10T04:58:31.198Z,13.40
2017-08-10T05:01:07.532Z,13.57
2017-08-10T05:03:43.124Z,12.00
2017-08-10T05:06:17.237Z,14.95
2017-08-10T05:08:52.079Z,14.57
2017-08-10T05:11:27.179Z,16.62
2017-08-10T05:14:01.533Z,14.70
2017-08-10T05:16:35.891Z,17.92
2017-08-10T05:19:12.962Z,17.60
2017-08-10T05:21:48.269Z,12.68
2017-08-10T05:24:23.679Z,16.65
2017-08-10T05:26:57.700Z,17.73
2017-08-10T05:29:34.325Z,15.10
2017-08-10T05:32:11.280Z,16.42
2017-08-10T05:34:45.962Z,17.33
2017-08-10T05:37:22.307Z,17.85
2017-08-10T05:39:57.698Z,17.62
2017-08-10T05:42:31.861Z,17.15
2017-08-10T05:45:13.184Z,17.27
2017-08-10T05:47:49.393Z,16.87
2017-08-10T05:50:24.236Z,18.48
2017-08-10T05:52:58.920Z,21.40
2017-08-10T05:55:34.987Z,19.85
2017-08-10T05:58:09.880Z,15.07
2017-08-10T06:00:45.978Z,13.40
2017-08-10T06:03:22.542Z,17.52
2017-08-10T06:05:57.782Z,20.92
2017-08-10T06:08:33.226Z,20.75
2017-08-10T06:11:08.595Z,17.70
2017-08-10T06:13:44.714Z,16.70
2017-08-10T06:16:22.494Z,13.02
2017-08-10T06:18:56.209Z,14.07
2017-08-10T06:21:30.433Z,12.30
2017-08-10T06:24:05.301Z,16.77
2017-08-10T06:26:48.662Z,20.90
2017-08-10T06:29:25.809Z,16.65
2017-08-10T06:31:59.740Z,22.67
2017-08-10T06:34:34.674Z,19.80
2017-08-10T06:37:09.546Z,20.75
2017-08-10T06:39:43.643Z,19.30
2017-08-10T06:42:20.047Z,23.42
2017-08-10T06:44:54.312Z,21.20
2017-08-10T06:47:29.790Z,23.73
2017-08-10T06:50:04.105Z,22.33
2017-08-10T06:52:39.473Z,20.92
2017-08-10T06:55:13.535Z,24.33
2017-08-10T06:57:50.237Z,21.55
2017-08-10T07:00:25.409Z,23.02
2017-08-10T07:03:02.718Z,21.48
2017-08-10T07:05:37.903Z,19.15
2017-08-10T07:08:13.146Z,20.98
2017-08-10T07:10:50.676Z,16.58
2017-08-10T07:13:24.617Z,14.60
2017-08-10T07:15:59.297Z,13.45
2017-08-10T07:18:35.299Z,15.35
2017-08-10T07:21:08.882Z,17.67
2017-08-10T07:23:52.652Z,16.10
2017-08-10T07:26:28.287Z,16.80
2017-08-10T07:29:05.394Z,15.60
2017-08-10T07:31:45.048Z,18.02
2017-08-10T07:34:20.410Z,19.35
2017-08-10T07:37:08.090Z,18.87
2017-08-10T07:39:41.727Z,18.90
2017-08-10T07:42:19.394Z,15.30
2017-08-10T07:44:54.497Z,16.45
2017-08-10T07:47:28.464Z,18.00
2017-08-10T07:50:07.311Z,18.17
2017-08-10T07:52:42.575Z,16.83
2017-08-10T07:55:19.670Z,18.73
2017-08-10T07:57:53.981Z,17.10
2017-08-10T08:00:27.554Z,19.17
2017-08-10T08:03:03.039Z,18.83
2017-08-10T08:05:39.078Z,15.50
2017-08-10T08:08:14.058Z,17.65
2017-08-10T08:10:51.941Z,15.55
2017-08-10T08:13:28.112Z,15.95
2017-08-10T08:16:04.495Z,16.40
2017-08-10T08:18:42.353Z,16.00
2017-08-10T08:21:20.332Z,15.07
2017-08-10T08:23:56.924Z,15.80
2017-08-10T08:26:32.609Z,12.88
2017-08-10T08:29:06.326Z,13.68
2017-08-10T08:31:42.968Z,14.25
2017-08-10T08:34:21.146Z,14.82
2017-08-10T08:36:56.651Z,14.93
2017-08-10T08:39:30.502Z,26.05
2017-08-10T08:42:04.392Z,20.05
2017-08-10T08:44:40.339Z,14.25
2017-08-10T08:47:17.143Z,14.65
2017-08-10T08:49:57.560Z,14.38
2017-08-10T08:52:32.904Z,13.00
2017-08-10T08:55:11.994Z,12.77
2017-08-10T08:57:47.282Z,12.23
2017-08-10T09:00:22.063Z,14.98
2017-08-10T09:02:59.333Z,12.32
2017-08-10T09:05:34.204Z,13.90
2017-08-10T09:08:10.675Z,14.45
2017-08-10T09:10:46.908Z,14.75
2017-08-10T09:13:20.788Z,12.45
2017-08-10T09:15:56.167Z,13.02
2017-08-10T09:18:38.326Z,16.50
2017-08-10T09:21:17.596Z,15.07
2017-08-10T09:24:07.196Z,12.77
2017-08-10T09:26:46.676Z,14.50
2017-08-10T09:29:24.205Z,14.48
2017-08-10T09:32:01.484Z,16.20
2017-08-10T09:34:36.960Z,17.40
2017-08-10T09:37:15.962Z,17.33
2017-08-10T09:39:52.295Z,17.92
2017-08-10T09:42:27.166Z,18.85
2017-08-10T09:45:04.203Z,19.12
2017-08-10T09:47:44.381Z,18.73
2017-08-10T09:50:18.824Z,18.27
2017-08-10T09:52:54.466Z,17.87
2017-08-10T09:55:29.858Z,16.75
2017-08-10T09:58:09.953Z,17.98
2017-08-10T10:00:47.341Z,17.10
2017-08-10T10:03:22.059Z,17.37
2017-08-10T10:05:58.862Z,15.82
2017-08-10T10:08:33.329Z,15.43
2017-08-10T10:11:06.957Z,15.73
2017-08-10T10:13:40.956Z,14.68
2017-08-10T10:16:16.243Z,15.30
2017-08-10T10:18:54.047Z,15.55
2017-08-10T10:21:29.373Z,14.18
2017-08-10T10:24:03.745Z,14.75
2017-08-10T10:26:40.681Z,13.95
2017-08-10T10:29:19.054Z,14.73
2017-08-10T10:31:52.792Z,14.60
2017-08-10T10:34:26.662Z,15.60
2017-08-10T10:37:03.608Z,14.25
2017-08-10T10:39:39.920Z,14.10
2017-08-10T10:42:14.090Z,15.45
2017-08-10T10:44:47.860Z,16.75
2017-08-10T10:47:24.182Z,16.30
2017-08-10T10:49:58.089Z,17.10
2017-08-10T10:52:32.768Z,17.70
2017-08-10T10:55:08.322Z,17.92
2017-08-10T10:57:42.187Z,15.98
2017-08-10T11:00:22.306Z,17.12
2017-08-10T11:02:56.363Z,16.42
2017-08-10T11:05:31.274Z,17.85
2017-08-10T11:08:07.188Z,17.30
2017-08-10T11:10:42.579Z,17.15
2017-08-10T11:13:17.412Z,16.73
2017-08-10T11:15:51.015Z,15.45
2017-08-10T11:18:24.808Z,15.90
2017-08-10T11:21:00.207Z,15.75
2017-08-10T11:23:34.643Z,16.65
2017-08-10T11:26:10.048Z,16.90
2017-08-10T11:28:46.296Z,15.93
2017-08-10T11:31:21.612Z,16.00
2017-08-10T11:34:01.032Z,15.93
2017-08-10T11:36:35.585Z,17.62
2017-08-10T11:39:12.031Z,17.42
2017-08-10T11:41:45.822Z,14.30
2017-08-10T11:44:20.135Z,13.52
2017-08-10T11:46:59.997Z,16.65
2017-08-10T11:49:33.885Z,17.17
2017-08-10T11:52:09.905Z,16.05
2017-08-10T11:57:42.816Z,15.27
2017-08-10T12:00:18.656Z,17.12
2017-08-10T12:02:52.423Z,16.75
2017-08-10T12:05:26.240Z,15.15
2017-08-10T12:08:00.660Z,14.73
2017-08-10T12:10:38.759Z,16.25
2017-08-10T12:13:15.716Z,17.55
2017-08-10T12:15:52.270Z,16.25
2017-08-10T12:18:26.308Z,14.60
2017-08-10T12:21:03.404Z,13.60
2017-08-10T12:23:40.592Z,13.05
2017-08-10T12:26:14.676Z,16.83
2017-08-10T12:28:48.348Z,13.13
2017-08-10T12:31:22.001Z,15.63
2017-08-10T12:33:56.472Z,14.20
2017-08-10T12:36:35.461Z,15.25
2017-08-10T12:39:11.486Z,15.82
2017-08-10T12:41:45.795Z,13.88
2017-08-10T12:44:21.114Z,14.40
2017-08-10T12:46:55.033Z,14.20
2017-08-10T12:49:29.020Z,13.05
2017-08-10T12:52:02.993Z,14.15
2017-08-10T12:54:38.280Z,13.90
2017-08-10T12:57:12.199Z,13.30
2017-08-10T12:59:47.590Z,13.48
2017-08-10T13:02:21.848Z,13.98
2017-08-10T13:04:55.666Z,11.75
2017-08-10T13:07:29.543Z,12.88
2017-08-10T13:10:04.531Z,12.82
2017-08-10T13:12:39.812Z,14.27
2017-08-10T13:15:13.883Z,45.15
2017-08-10T13:17:47.812Z,12.37
2017-08-10T13:20:21.597Z,13.35
2017-08-10T13:22:55.365Z,14.27
2017-08-10T13:25:32.648Z,13.18
2017-08-10T13:28:06.380Z,13.80
2017-08-10T13:30:40.376Z,13.85
2017-08-10T13:33:14.544Z,10.75
2017-08-10T13:35:48.858Z,6.00
2017-08-10T13:38:22.726Z,4.25
2017-08-10T13:40:56.594Z,4.00
2017-08-10T13:43:31.314Z,2.87
2017-08-10T13:46:06.045Z,1.75
2017-08-10T13:48:40.317Z,1.23
2017-08-10T13:51:14.357Z,1.17
2017-08-10T13:53:48.307Z,0.88
2017-08-10T13:56:22.290Z,0.85
2017-08-10T13:58:56.272Z,0.70
2017-08-10T14:01:30.251Z,0.57
2017-08-10T14:04:05.330Z,0.70
2017-08-10T14:06:40.028Z,0.77
2017-08-10T14:12:00.810Z,1.60
2017-08-10T14:14:34.631Z,0.62
2017-08-10T14:17:09.443Z,0.60
2017-08-10T14:19:44.288Z,0.90
2017-08-10T14:22:19.218Z,0.80
2017-08-10T14:24:53.960Z,0.70
2017-08-10T14:27:29.583Z,0.77
2017-08-10T14:30:03.474Z,0.80
2017-08-10T14:32:38.511Z,1.15
2017-08-10T14:35:12.789Z,0.90
2017-08-10T14:37:46.918Z,1.00
2017-08-10T14:40:22.156Z,0.88
2017-08-10T14:42:56.273Z,1.48
2017-08-10T14:45:31.236Z,0.50
2017-08-10T14:48:05.367Z,0.73
2017-08-10T14:50:40.844Z,0.70
2017-08-10T14:53:14.607Z,0.70
2017-08-10T14:55:49.140Z,1.45
2017-08-10T14:58:22.989Z,1.50
2017-08-10T15:00:57.710Z,0.85
2017-08-10T15:06:28.174Z,0.60
2017-08-10T15:09:03.009Z,1.20
2017-08-10T15:11:37.005Z,1.20
2017-08-10T15:14:11.455Z,1.05
2017-08-10T15:16:46.492Z,2.10
2017-08-10T15:19:21.583Z,3.55
2017-08-10T15:21:55.614Z,7.50
2017-08-10T15:24:30.623Z,1.23
2017-08-10T15:27:04.413Z,2.67
2017-08-10T15:29:38.981Z,2.40
2017-08-10T15:32:13.023Z,2.40
2017-08-10T15:34:46.969Z,1.27
2017-08-10T15:37:20.810Z,1.40
2017-08-10T15:39:54.776Z,0.70
2017-08-10T15:42:29.239Z,1.62
2017-08-10T15:45:03.951Z,1.27
2017-08-10T15:47:38.726Z,1.15
2017-08-10T15:50:12.661Z,0.80
2017-08-10T15:52:47.379Z,1.23
2017-08-10T15:55:21.368Z,0.90
2017-08-10T15:57:55.209Z,1.00
2017-08-10T16:00:29.355Z,0.70
2017-08-10T16:03:03.106Z,0.75
2017-08-10T16:05:37.803Z,2.87
2017-08-10T16:08:11.686Z,1.55
2017-08-10T16:10:45.430Z,1.42
2017-08-10T16:13:20.105Z,0.85
2017-08-10T16:15:53.737Z,1.10
2017-08-10T16:18:28.006Z,1.37
2017-08-10T16:21:02.131Z,4.85
2017-08-10T16:23:36.642Z,1.27
2017-08-10T16:26:11.290Z,3.12
2017-08-10T16:28:44.991Z,1.37
2017-08-10T16:31:19.711Z,1.70
2017-08-10T16:33:54.650Z,0.70
2017-08-10T16:36:28.527Z,1.37
2017-08-10T16:39:02.552Z,0.95
2017-08-10T16:41:37.086Z,1.40
2017-08-10T16:44:11.024Z,1.00
2017-08-10T16:46:45.648Z,0.80
2017-08-10T16:49:20.168Z,0.70
2017-08-10T16:51:54.531Z,1.20
2017-08-10T16:54:31.789Z,0.85
2017-08-10T16:57:05.557Z,1.55
2017-08-10T16:59:40.084Z,1.10
2017-08-10T17:02:13.935Z,1.05
2017-08-10T17:04:47.834Z,0.50
2017-08-10T17:07:22.349Z,0.50
2017-08-10T17:09:56.230Z,0.70
2017-08-10T17:12:30.105Z,0.70
2017-08-10T17:15:04.166Z,0.70
2017-08-10T17:17:38.357Z,1.12
2017-08-10T17:20:13.111Z,0.60
2017-08-10T17:22:47.054Z,0.65
2017-08-10T17:25:21.716Z,1.00
2017-08-10T17:27:55.792Z,1.23
2017-08-10T17:30:30.600Z,1.05
2017-08-10T17:33:04.313Z,1.27
2017-08-10T17:35:38.332Z,0.80
2017-08-10T17:38:13.237Z,1.00
2017-08-10T17:40:47.099Z,1.98
2017-08-10T17:43:21.380Z,2.00
2017-08-10T17:45:56.097Z,1.65
2017-08-10T17:48:30.114Z,1.10
2017-08-10T17:51:12.384Z,1.20
2017-08-10T17:53:52.382Z,1.20
2017-08-10T17:56:29.231Z,1.05
2017-08-10T17:59:03.933Z,2.40
2017-08-10T18:01:40.764Z,1.85
2017-08-10T18:04:16.217Z,1.02
2017-08-10T18:06:51.943Z,0.93
2017-08-10T18:09:26.137Z,0.75
2017-08-10T18:12:00.304Z,1.00
2017-08-10T18:14:38.227Z,0.95
2017-08-10T18:17:13.668Z,0.80
2017-08-10T18:19:47.504Z,1.35
2017-08-10T18:22:22.356Z,0.82
2017-08-10T18:24:56.589Z,0.85
2017-08-10T18:27:30.450Z,1.02
2017-08-10T18:30:04.545Z,1.00
2017-08-10T18:32:39.571Z,0.80
2017-08-10T18:35:14.389Z,1.00
2017-08-10T18:37:48.641Z,1.10
2017-08-10T18:40:24.183Z,2.83
2017-08-10T18:42:58.293Z,1.00
2017-08-10T18:45:32.220Z,0.90
2017-08-10T18:48:06.055Z,0.70
2017-08-10T18:50:40.316Z,2.03
2017-08-10T18:53:15.776Z,1.05
2017-08-10T18:55:50.012Z,0.93
2017-08-10T18:58:24.734Z,0.90
2017-08-10T19:00:58.609Z,1.15
2017-08-10T19:03:32.649Z,1.45
2017-08-10T19:06:07.377Z,2.10
2017-08-10T19:08:42.170Z,1.00
2017-08-10T19:11:16.172Z,1.00
2017-08-10T19:13:50.339Z,1.30
2017-08-10T19:16:25.221Z,0.90
2017-08-10T19:18:59.331Z,0.90
2017-08-10T19:21:33.568Z,1.02
2017-08-10T19:24:07.389Z,0.90
2017-08-10T19:26:42.172Z,0.95
2017-08-10T19:29:16.063Z,1.60
2017-08-10T19:31:50.978Z,1.60
2017-08-10T19:34:25.022Z,0.90
2017-08-10T19:36:59.119Z,1.12
2017-08-10T19:39:34.625Z,1.27
2017-08-10T19:42:08.424Z,1.00
2017-08-10T19:44:42.254Z,1.15
2017-08-10T19:47:17.248Z,0.85
2017-08-10T19:52:50.022Z,1.10
2017-08-10T19:55:23.762Z,1.30
2017-08-10T19:57:59.095Z,1.05
2017-08-10T20:00:33.436Z,0.93
2017-08-10T20:03:08.153Z,1.10
2017-08-10T20:05:43.800Z,0.93
2017-08-10T20:08:18.545Z,0.95
2017-08-10T20:10:54.358Z,1.23
2017-08-10T20:13:28.253Z,0.60
2017-08-10T20:16:02.259Z,0.95
2017-08-10T20:18:36.037Z,1.42
2017-08-10T20:21:10.110Z,1.65
2017-08-10T20:23:44.232Z,1.90
2017-08-10T20:26:19.136Z,0.85
2017-08-10T20:28:52.998Z,0.70
2017-08-10T20:31:27.109Z,1.17
2017-08-10T20:34:01.731Z,1.10
2017-08-10T20:36:35.674Z,1.02
2017-08-10T20:39:09.503Z,0.73
2017-08-10T20:41:43.297Z,0.93
2017-08-10T20:44:18.380Z,1.10
2017-08-10T20:46:52.533Z,1.20
2017-08-10T20:49:27.999Z,1.42
2017-08-10T20:52:01.954Z,0.80
2017-08-10T20:54:36.851Z,1.10
2017-08-10T20:57:10.717Z,2.03
2017-08-10T20:59:44.778Z,1.62
2017-08-10T21:02:19.182Z,1.52
2017-08-10T21:04:54.134Z,1.00
2017-08-10T21:07:28.411Z,1.67
2017-08-10T21:10:02.934Z,1.40
2017-08-10T21:12:36.971Z,0.82
2017-08-10T21:15:12.000Z,2.08
2017-08-10T21:17:46.014Z,0.60
2017-08-10T21:20:19.937Z,1.10
2017-08-10T21:22:54.723Z,1.83
2017-08-10T21:25:29.313Z,0.90
2017-08-10T21:28:03.011Z,0.68
2017-08-10T21:30:38.093Z,0.70
2017-08-10T21:33:13.014Z,0.70
2017-08-10T21:35:48.464Z,0.73
2017-08-10T21:38:22.445Z,1.70
2017-08-10T21:40:57.713Z,1.52
2017-08-10T21:43:31.453Z,1.20
2017-08-10T21:46:05.358Z,1.17
2017-08-10T21:48:39.345Z,1.30
2017-08-10T21:51:13.122Z,0.98
2017-08-10T21:53:47.020Z,0.70
2017-08-10T21:56:20.835Z,0.98
2017-08-10T21:58:55.806Z,1.98
2017-08-10T22:01:30.938Z,2.45
2017-08-10T22:04:04.658Z,0.80
2017-08-10T22:06:41.081Z,1.00
2017-08-10T22:09:14.889Z,0.90
2017-08-10T22:11:48.858Z,1.00
2017-08-10T22:14:25.113Z,1.00
2017-08-10T22:17:00.984Z,0.90
2017-08-10T22:19:34.718Z,0.80
2017-08-10T22:22:09.354Z,0.70
2017-08-10T22:24:44.701Z,0.93
2017-08-10T22:27:20.015Z,0.90
2017-08-10T22:29:54.603Z,1.02
2017-08-10T22:32:29.123Z,1.00
2017-08-10T22:35:03.175Z,0.70
2017-08-10T22:37:37.532Z,1.02
2017-08-10T22:40:12.548Z,1.10
2017-08-10T22:42:47.058Z,1.05
2017-08-10T22:45:21.111Z,0.90
2017-08-10T22:47:56.577Z,0.70
2017-08-10T22:50:30.518Z,1.10
2017-08-10T22:53:05.820Z,1.27
2017-08-10T22:55:39.838Z,0.73
2017-08-10T22:58:14.904Z,0.90
2017-08-10T23:00:49.109Z,1.15
2017-08-10T23:03:22.833Z,1.27
2017-08-10T23:05:56.893Z,1.25
2017-08-10T23:08:32.399Z,0.80
2017-08-10T23:11:06.403Z,1.00
2017-08-10T23:13:40.193Z,1.10
2017-08-10T23:16:15.304Z,0.88
2017-08-10T23:18:50.167Z,1.40
2017-08-10T23:21:24.980Z,0.95
2017-08-10T23:23:59.009Z,1.55
2017-08-10T23:26:34.824Z,0.90
2017-08-10T23:29:09.177Z,1.35
2017-08-10T23:31:43.062Z,1.42
2017-08-10T23:34:16.886Z,0.88
2017-08-10T23:36:50.580Z,0.90
2017-08-10T23:39:24.525Z,0.80
2017-08-10T23:41:58.224Z,0.75
2017-08-10T23:44:32.870Z,0.90
2017-08-10T23:47:06.969Z,1.00
2017-08-10T23:49:40.907Z,1.40
2017-08-10T23:52:14.742Z,0.90
2017-08-10T23:54:49.610Z,1.33
2017-08-10T23:57:24.315Z,0.80
2017-08-10T23:59:58.311Z,1.35
